Jackson, WY (83001)

10:58 AM MDT on May 26, 2017 (GMT -0600)
Upper Cache Creek Dr. | | Change Station
Active Advisory: Winter Weather Advisory

Elev 6535 ft 43.47 °N, 110.75 °W | Updated 2 seconds ago

Rain
Rain
35.6 °F
Feels Like 36 °F
N
0.0
Wind Variable Wind from South
Gusts 0.0 mph

Today
High -- | Low -- °F
--% Chance of Precip.
Yesterday
High -- | Low -- °F
Precip. -- in
Pressure 29.90 in
Visibility 10.0 miles
Clouds Mostly Cloudy 1600 ft
Overcast 2500 ft
Windchill 36 °F
Dew Point 34 °F
Humidity 93%
Rainfall 0.17 in
Snow Depth Not available.
5:48 AM 8:52 PM
New Moon, 1% visible
METAR KJAC 261651Z 01010KT 10SM -RA BKN016 OVC025 03/03 A2990
Pressure 29.90 in
Visibility 10.0 miles
Clouds Mostly Cloudy 1600 ft
Overcast 2500 ft
Windchill 36 °F
Dew Point 34 °F
Humidity 93%
Rainfall 0.17 in
Snow Depth Not available.
5:48 AM 8:52 PM
New Moon, 1% visible
METAR KJAC 261651Z 01010KT 10SM -RA BKN016 OVC025 03/03 A2990

Get Your Daily Forecast Email!

Thanks for signing up!

Be on the lookout for a verification email in your inbox.

You'll start receiving severe weather alerts in your inbox..

×

10-Day Weather Forecast

Almanac

Astronomy

May. 26, 2017 Rise Set
Actual Time
Civil Twilight
Nautical Twilight
Astronomical Twilight
Moon
Length of Visible Light
Length of Day
Tomorrow will be .
, % of the Moon is Illuminated

Today's Extremes

State Highs State Lows

Community

WunderPhotos

Category 6

Welcome to Category 6. This is the collective home for Weather Underground's featured writeups by Dr. Jeff Masters (right), Bob Henson (left), Chris Burt, and other regular contributors.

Nearby

Air Quality

  Air Quality AQ Index Pollutant
Not available.

Snow Depth

Station Depth Elevation

Earthquake Activity

City Distance Mag. Time & Date
Minimum magnitude displayed is 2.5.

Coastal Water Temperatures

Place Temperature

Stations

Nearby Weather Stations

Station Location Temp. Windchill Dew Point Humidity Wind Precip. Elev Updated Type
                   

Watches & Warnings

Winter Weather Advisory
Issued: 1:36 AM MDT May. 26, 2017 – National Weather Service

... Winter Weather Advisory remains in effect from 6 am this
morning to midnight MDT tonight...

* timing... snow will begin in The Tetons around daybreak and
spread east during the day. Snow will taper off during the
evening.

* Total snowfall... 4 to 10 inches.

* Main impact... mountain passes will become slick and snow
covered. Visibility may be reduced to under one half mile at
times.

Precautionary/preparedness actions...

A Winter Weather Advisory for snow means periods of snow will
cause primarily travel difficulties. Be prepared for snow covered
and slick roads with limited visibilities. Slow down, and allow
extra time to reach your destination. Check the latest Road
conditions at wyoroad.Info or by dialing 5 1 1.